sensor_id;sensor_type;location;lat;lon;timestamp;temperature;humidity
20141;DHT22;10231;47.702;9.826;2024-03-02T00:02:11;4.70;99.90
20141;DHT22;10231;47.702;9.826;2024-03-02T00:04:37;4.60;99.90
20141;DHT22;10231;47.702;9.826;2024-03-02T00:07:03;4.60;99.90
20141;DHT22;10231;47.702;9.826;2024-03-02T00:09:29;4.60;99.90
20141;DHT22;10231;47.702;9.826;2024-03-02T00:11:54;4.70;99.90
20141;DHT22;10231;47.702;9.826;2024-03-02T00:14:20;4.70;99.90
20141;DHT22;10231;47.702;9.826;2024-03-02T00:16:46;4.60;99.90
20141;DHT22;10231;47.702;9.826;2024-03-02T00:19:11;4.60;99.90
20141;DHT22;10231;47.702;9.826;2024-03-02T00:21:37;4.50;99.90
20141;DHT22;10231;47.702;9.826;2024-03-02T00:24:26;4.40;99.90
20141;DHT22;10231;47.702;9.826;2024-03-02T00:26:54;4.50;99.90
20141;DHT22;10231;47.702;9.826;2024-03-02T00:29:20;4.50;99.90
20141;DHT22;10231;47.702;9.826;2024-03-02T00:31:46;4.50;99.90
20141;DHT22;10231;47.702;9.826;2024-03-02T00:34:14;4.60;99.90
20141;DHT22;10231;47.702;9.826;2024-03-02T00:36:41;4.60;99.90
20141;DHT22;10231;47.702;9.826;2024-03-02T00:39:07;4.70;99.90
20141;DHT22;10231;47.702;9.826;2024-03-02T00:41:33;4.70;99.90
20141;DHT22;10231;47.702;9.826;2024-03-02T00:43:59;4.80;99.90
20141;DHT22;10231;47.702;9.826;2024-03-02T00:46:32;4.90;99.90
20141;DHT22;10231;47.702;9.826;2024-03-02T00:49:00;4.90;99.90
20141;DHT22;10231;47.702;9.826;2024-03-02T00:51:27;4.90;99.90
20141;DHT22;10231;47.702;9.826;2024-03-02T00:53:55;4.90;99.90
20141;DHT22;10231;47.702;9.826;2024-03-02T00:56:22;4.90;99.90
20141;DHT22;10231;47.702;9.826;2024-03-02T00:58:49;4.80;99.90
20141;DHT22;10231;47.702;9.826;2024-03-02T01:01:15;4.80;99.90
20141;DHT22;10231;47.702;9.826;2024-03-02T01:03:42;4.80;99.90
20141;DHT22;10231;47.702;9.826;2024-03-02T01:06:08;4.80;99.90
20141;DHT22;10231;47.702;9.826;2024-03-02T01:08:34;4.80;99.90
20141;DHT22;10231;47.702;9.826;2024-03-02T01:11:00;4.80;99.90
20141;DHT22;10231;47.702;9.826;2024-03-02T01:13:26;4.70;99.90
20141;DHT22;10231;47.702;9.826;2024-03-02T01:15:51;4.80;99.90
20141;DHT22;10231;47.702;9.826;2024-03-02T01:18:17;4.70;99.90
20141;DHT22;10231;47.702;9.826;2024-03-02T01:20:42;4.70;99.90
20141;DHT22;10231;47.702;9.826;2024-03-02T01:23:08;4.70;99.90
20141;DHT22;10231;47.702;9.826;2024-03-02T01:25:33;4.70;99.90
20141;DHT22;10231;47.702;9.826;2024-03-02T01:27:59;4.80;99.90
20141;DHT22;10231;47.702;9.826;2024-03-02T01:30:24;4.80;99.90
20141;DHT22;10231;47.702;9.826;2024-03-02T01:32:50;4.80;99.90
20141;DHT22;10231;47.702;9.826;2024-03-02T01:35:16;4.80;99.90
20141;DHT22;10231;47.702;9.826;2024-03-02T01:37:42;4.90;99.90
20141;DHT22;10231;47.702;9.826;2024-03-02T01:40:08;4.80;99.90
20141;DHT22;10231;47.702;9.826;2024-03-02T01:42:37;4.80;99.90
20141;DHT22;10231;47.702;9.826;2024-03-02T01:45:08;4.90;99.90
20141;DHT22;10231;47.702;9.826;2024-03-02T01:47:34;4.80;99.90
20141;DHT22;10231;47.702;9.826;2024-03-02T01:50:00;4.80;99.90
20141;DHT22;10231;47.702;9.826;2024-03-02T01:52:26;4.80;99.90
20141;DHT22;10231;47.702;9.826;2024-03-02T01:54:51;4.80;99.90
20141;DHT22;10231;47.702;9.826;2024-03-02T01:57:18;4.80;99.90
20141;DHT22;10231;47.702;9.826;2024-03-02T01:59:44;4.70;99.90
20141;DHT22;10231;47.702;9.826;2024-03-02T02:02:10;4.80;99.90
20141;DHT22;10231;47.702;9.826;2024-03-02T02:04:35;4.70;99.90
20141;DHT22;10231;47.702;9.826;2024-03-02T02:07:01;4.70;99.90
20141;DHT22;10231;47.702;9.826;2024-03-02T02:09:27;4.70;99.90
20141;DHT22;10231;47.702;9.826;2024-03-02T02:11:52;4.60;99.90
20141;DHT22;10231;47.702;9.826;2024-03-02T02:14:18;4.60;99.90
20141;DHT22;10231;47.702;9.826;2024-03-02T02:16:44;4.60;99.90
20141;DHT22;10231;47.702;9.826;2024-03-02T02:19:09;4.60;99.90
20141;DHT22;10231;47.702;9.826;2024-03-02T02:21:35;4.70;99.90
20141;DHT22;10231;47.702;9.826;2024-03-02T02:24:01;4.70;99.90
20141;DHT22;10231;47.702;9.826;2024-03-02T02:26:29;4.60;99.90
20141;DHT22;10231;47.702;9.826;2024-03-02T02:28:55;4.60;99.90
20141;DHT22;10231;47.702;9.826;2024-03-02T02:31:20;4.70;99.90
20141;DHT22;10231;47.702;9.826;2024-03-02T02:33:46;4.70;99.90
20141;DHT22;10231;47.702;9.826;2024-03-02T02:36:11;4.70;99.90
20141;DHT22;10231;47.702;9.826;2024-03-02T02:38:44;4.80;99.90
20141;DHT22;10231;47.702;9.826;2024-03-02T02:41:09;4.80;99.90
20141;DHT22;10231;47.702;9.826;2024-03-02T02:43:35;4.70;99.90
20141;DHT22;10231;47.702;9.826;2024-03-02T02:46:01;4.70;99.90
20141;DHT22;10231;47.702;9.826;2024-03-02T02:48:26;4.70;99.90
20141;DHT22;10231;47.702;9.826;2024-03-02T02:50:52;4.60;99.90
20141;DHT22;10231;47.702;9.826;2024-03-02T02:53:17;4.50;99.90
20141;DHT22;10231;47.702;9.826;2024-03-02T02:55:43;4.60;99.90
20141;DHT22;10231;47.702;9.826;2024-03-02T02:58:12;4.60;99.90
20141;DHT22;10231;47.702;9.826;2024-03-02T03:00:37;4.60;99.90
20141;DHT22;10231;47.702;9.826;2024-03-02T03:03:03;4.70;99.90
20141;DHT22;10231;47.702;9.826;2024-03-02T03:05:29;4.70;99.90
20141;DHT22;10231;47.702;9.826;2024-03-02T03:07:54;4.70;99.90
20141;DHT22;10231;47.702;9.826;2024-03-02T03:10:20;4.70;99.90
20141;DHT22;10231;47.702;9.826;2024-03-02T03:12:47;4.70;99.90
20141;DHT22;10231;47.702;9.826;2024-03-02T03:15:13;4.70;99.90
20141;DHT22;10231;47.702;9.826;2024-03-02T03:17:39;4.80;99.90
20141;DHT22;10231;47.702;9.826;2024-03-02T03:20:06;4.80;99.90
20141;DHT22;10231;47.702;9.826;2024-03-02T03:22:35;4.90;99.90
20141;DHT22;10231;47.702;9.826;2024-03-02T03:25:00;4.80;99.90
20141;DHT22;10231;47.702;9.826;2024-03-02T03:27:26;4.80;99.90
20141;DHT22;10231;47.702;9.826;2024-03-02T03:29:52;4.80;99.90
20141;DHT22;10231;47.702;9.826;2024-03-02T03:32:17;4.90;99.90
20141;DHT22;10231;47.702;9.826;2024-03-02T03:34:43;4.90;99.90
20141;DHT22;10231;47.702;9.826;2024-03-02T03:37:08;4.90;99.90
20141;DHT22;10231;47.702;9.826;2024-03-02T03:39:36;4.80;99.90
20141;DHT22;10231;47.702;9.826;2024-03-02T03:42:01;4.80;99.90
20141;DHT22;10231;47.702;9.826;2024-03-02T03:44:27;4.80;99.90
20141;DHT22;10231;47.702;9.826;2024-03-02T03:46:52;4.80;99.90
20141;DHT22;10231;47.702;9.826;2024-03-02T03:49:18;4.80;99.90
20141;DHT22;10231;47.702;9.826;2024-03-02T03:51:43;4.70;99.90
20141;DHT22;10231;47.702;9.826;2024-03-02T03:54:09;4.80;99.90
20141;DHT22;10231;47.702;9.826;2024-03-02T03:56:36;4.80;99.90
20141;DHT22;10231;47.702;9.826;2024-03-02T03:59:02;4.80;99.90
20141;DHT22;10231;47.702;9.826;2024-03-02T04:01:28;4.80;99.90
20141;DHT22;10231;47.702;9.826;2024-03-02T04:03:53;4.80;99.90
20141;DHT22;10231;47.702;9.826;2024-03-02T04:06:19;4.80;99.90
20141;DHT22;10231;47.702;9.826;2024-03-02T04:08:44;4.70;99.90
20141;DHT22;10231;47.702;9.826;2024-03-02T04:11:10;4.70;99.90
20141;DHT22;10231;47.702;9.826;2024-03-02T04:13:36;4.70;99.90
20141;DHT22;10231;47.702;9.826;2024-03-02T04:16:01;4.70;99.90
20141;DHT22;10231;47.702;9.826;2024-03-02T04:18:29;4.70;99.90
20141;DHT22;10231;47.702;9.826;2024-03-02T04:20:54;4.80;99.90
20141;DHT22;10231;47.702;9.826;2024-03-02T04:23:20;4.70;99.90
20141;DHT22;10231;47.702;9.826;2024-03-02T04:25:45;4.70;99.90
20141;DHT22;10231;47.702;9.826;2024-03-02T04:28:11;4.70;99.90
20141;DHT22;10231;47.702;9.826;2024-03-02T04:30:37;4.70;99.90
20141;DHT22;10231;47.702;9.826;2024-03-02T04:33:03;4.70;99.90
20141;DHT22;10231;47.702;9.826;2024-03-02T04:35:29;4.70;99.90
20141;DHT22;10231;47.702;9.826;2024-03-02T04:37:54;4.70;99.90
20141;DHT22;10231;47.702;9.826;2024-03-02T04:40:20;4.70;99.90
20141;DHT22;10231;47.702;9.826;2024-03-02T04:42:45;4.70;99.90
20141;DHT22;10231;47.702;9.826;2024-03-02T04:45:11;4.70;99.90
20141;DHT22;10231;47.702;9.826;2024-03-02T04:47:36;4.70;99.90
20141;DHT22;10231;47.702;9.826;2024-03-02T04:50:02;4.60;99.90
20141;DHT22;10231;47.702;9.826;2024-03-02T04:52:27;4.60;99.90
20141;DHT22;10231;47.702;9.826;2024-03-02T04:54:53;4.60;99.90
20141;DHT22;10231;47.702;9.826;2024-03-02T04:57:37;4.60;99.90
20141;DHT22;10231;47.702;9.826;2024-03-02T05:00:03;4.60;99.90
20141;DHT22;10231;47.702;9.826;2024-03-02T05:02:32;4.70;99.90
20141;DHT22;10231;47.702;9.826;2024-03-02T05:04:57;4.70;99.90
20141;DHT22;10231;47.702;9.826;2024-03-02T05:07:23;4.70;99.90
20141;DHT22;10231;47.702;9.826;2024-03-02T05:09:48;4.70;99.90
20141;DHT22;10231;47.702;9.826;2024-03-02T05:12:14;4.60;99.90
20141;DHT22;10231;47.702;9.826;2024-03-02T05:15:06;4.60;99.90
20141;DHT22;10231;47.702;9.826;2024-03-02T05:17:33;4.60;99.90
20141;DHT22;10231;47.702;9.826;2024-03-02T05:19:58;4.60;99.90
20141;DHT22;10231;47.702;9.826;2024-03-02T05:22:24;4.60;99.90
20141;DHT22;10231;47.702;9.826;2024-03-02T05:24:50;4.50;99.90
20141;DHT22;10231;47.702;9.826;2024-03-02T05:27:15;4.50;99.90
20141;DHT22;10231;47.702;9.826;2024-03-02T05:29:41;4.50;99.90
20141;DHT22;10231;47.702;9.826;2024-03-02T05:32:06;4.50;99.90
20141;DHT22;10231;47.702;9.826;2024-03-02T05:34:32;4.60;99.90
20141;DHT22;10231;47.702;9.826;2024-03-02T05:37:00;4.60;99.90
20141;DHT22;10231;47.702;9.826;2024-03-02T05:39:25;4.50;99.90
20141;DHT22;10231;47.702;9.826;2024-03-02T05:41:51;4.40;99.90
20141;DHT22;10231;47.702;9.826;2024-03-02T05:44:16;4.40;99.90
20141;DHT22;10231;47.702;9.826;2024-03-02T05:46:43;4.20;99.90
20141;DHT22;10231;47.702;9.826;2024-03-02T05:49:09;4.10;99.90
20141;DHT22;10231;47.702;9.826;2024-03-02T05:51:35;4.00;99.90
20141;DHT22;10231;47.702;9.826;2024-03-02T05:54:01;4.00;99.90
20141;DHT22;10231;47.702;9.826;2024-03-02T05:56:26;4.00;99.90
20141;DHT22;10231;47.702;9.826;2024-03-02T05:58:52;4.10;99.90
20141;DHT22;10231;47.702;9.826;2024-03-02T06:01:42;4.00;99.90
20141;DHT22;10231;47.702;9.826;2024-03-02T06:04:08;4.00;99.90
20141;DHT22;10231;47.702;9.826;2024-03-02T06:06:34;4.00;99.90
20141;DHT22;10231;47.702;9.826;2024-03-02T06:09:03;4.00;99.90
20141;DHT22;10231;47.702;9.826;2024-03-02T06:11:38;4.10;99.90
20141;DHT22;10231;47.702;9.826;2024-03-02T06:14:04;4.00;99.90
20141;DHT22;10231;47.702;9.826;2024-03-02T06:16:30;4.10;99.90
20141;DHT22;10231;47.702;9.826;2024-03-02T06:18:56;4.20;99.90
20141;DHT22;10231;47.702;9.826;2024-03-02T06:21:23;4.20;99.90
20141;DHT22;10231;47.702;9.826;2024-03-02T06:23:49;4.20;99.90
20141;DHT22;10231;47.702;9.826;2024-03-02T06:26:14;4.30;99.90
20141;DHT22;10231;47.702;9.826;2024-03-02T06:28:40;4.30;99.90
20141;DHT22;10231;47.702;9.826;2024-03-02T06:31:05;4.40;99.90
20141;DHT22;10231;47.702;9.826;2024-03-02T06:33:31;4.40;99.90
20141;DHT22;10231;47.702;9.826;2024-03-02T06:35:56;4.40;99.90
20141;DHT22;10231;47.702;9.826;2024-03-02T06:38:22;4.30;99.90
20141;DHT22;10231;47.702;9.826;2024-03-02T06:40:48;4.40;99.90
20141;DHT22;10231;47.702;9.826;2024-03-02T06:43:13;4.50;99.90
20141;DHT22;10231;47.702;9.826;2024-03-02T06:45:39;4.50;99.90
20141;DHT22;10231;47.702;9.826;2024-03-02T06:48:04;4.50;99.90
20141;DHT22;10231;47.702;9.826;2024-03-02T06:50:30;4.40;99.90
20141;DHT22;10231;47.702;9.826;2024-03-02T06:52:56;4.40;99.90
20141;DHT22;10231;47.702;9.826;2024-03-02T06:55:21;4.40;99.90
20141;DHT22;10231;47.702;9.826;2024-03-02T06:57:47;4.50;99.90
20141;DHT22;10231;47.702;9.826;2024-03-02T07:00:13;4.60;99.90
20141;DHT22;10231;47.702;9.826;2024-03-02T07:02:39;4.70;99.90
20141;DHT22;10231;47.702;9.826;2024-03-02T07:05:07;4.70;99.90
20141;DHT22;10231;47.702;9.826;2024-03-02T07:07:33;4.60;99.90
20141;DHT22;10231;47.702;9.826;2024-03-02T07:10:00;4.70;99.90
20141;DHT22;10231;47.702;9.826;2024-03-02T07:12:26;4.70;99.90
20141;DHT22;10231;47.702;9.826;2024-03-02T07:14:52;4.80;99.90
20141;DHT22;10231;47.702;9.826;2024-03-02T07:17:30;4.70;99.90
20141;DHT22;10231;47.702;9.826;2024-03-02T07:19:56;4.70;99.90
20141;DHT22;10231;47.702;9.826;2024-03-02T07:22:22;4.80;99.90
20141;DHT22;10231;47.702;9.826;2024-03-02T07:24:48;4.80;99.90
20141;DHT22;10231;47.702;9.826;2024-03-02T07:27:16;4.80;99.90
20141;DHT22;10231;47.702;9.826;2024-03-02T07:29:42;4.90;99.90
20141;DHT22;10231;47.702;9.826;2024-03-02T07:32:09;4.90;99.90
20141;DHT22;10231;47.702;9.826;2024-03-02T07:34:35;5.00;99.90
20141;DHT22;10231;47.702;9.826;2024-03-02T07:37:01;5.00;99.90
20141;DHT22;10231;47.702;9.826;2024-03-02T07:39:27;5.00;99.90
20141;DHT22;10231;47.702;9.826;2024-03-02T07:41:52;5.00;99.90
20141;DHT22;10231;47.702;9.826;2024-03-02T07:44:18;5.10;99.90
20141;DHT22;10231;47.702;9.826;2024-03-02T07:46:47;5.20;99.90
20141;DHT22;10231;47.702;9.826;2024-03-02T07:49:15;5.20;99.90
20141;DHT22;10231;47.702;9.826;2024-03-02T07:51:41;5.30;99.90
20141;DHT22;10231;47.702;9.826;2024-03-02T07:54:07;5.30;99.90
20141;DHT22;10231;47.702;9.826;2024-03-02T07:56:32;5.50;99.90
20141;DHT22;10231;47.702;9.826;2024-03-02T07:58:58;5.40;99.90
20141;DHT22;10231;47.702;9.826;2024-03-02T08:01:30;5.50;99.90
20141;DHT22;10231;47.702;9.826;2024-03-02T08:04:00;5.50;99.90
20141;DHT22;10231;47.702;9.826;2024-03-02T08:06:26;5.60;99.90
20141;DHT22;10231;47.702;9.826;2024-03-02T08:08:59;5.70;99.90
20141;DHT22;10231;47.702;9.826;2024-03-02T08:11:25;5.80;99.90
20141;DHT22;10231;47.702;9.826;2024-03-02T08:13:52;5.90;99.90
20141;DHT22;10231;47.702;9.826;2024-03-02T08:16:21;5.90;99.90
20141;DHT22;10231;47.702;9.826;2024-03-02T08:18:50;6.10;99.90
20141;DHT22;10231;47.702;9.826;2024-03-02T08:21:16;6.10;99.90
20141;DHT22;10231;47.702;9.826;2024-03-02T08:23:42;6.10;99.90
20141;DHT22;10231;47.702;9.826;2024-03-02T08:26:09;6.20;99.90
20141;DHT22;10231;47.702;9.826;2024-03-02T08:28:35;6.30;99.90
20141;DHT22;10231;47.702;9.826;2024-03-02T08:31:02;6.40;99.90
20141;DHT22;10231;47.702;9.826;2024-03-02T08:33:28;6.40;99.90
20141;DHT22;10231;47.702;9.826;2024-03-02T08:35:54;6.50;99.90
20141;DHT22;10231;47.702;9.826;2024-03-02T08:38:19;6.50;99.90
20141;DHT22;10231;47.702;9.826;2024-03-02T08:40:45;6.60;99.90
20141;DHT22;10231;47.702;9.826;2024-03-02T08:43:11;6.60;99.90
20141;DHT22;10231;47.702;9.826;2024-03-02T08:45:37;6.70;99.90
20141;DHT22;10231;47.702;9.826;2024-03-02T08:48:06;6.80;99.90
20141;DHT22;10231;47.702;9.826;2024-03-02T08:50:33;6.90;99.90
20141;DHT22;10231;47.702;9.826;2024-03-02T08:52:59;6.90;99.90
20141;DHT22;10231;47.702;9.826;2024-03-02T08:55:25;7.00;99.90
20141;DHT22;10231;47.702;9.826;2024-03-02T08:57:50;7.10;99.90
20141;DHT22;10231;47.702;9.826;2024-03-02T09:00:16;7.10;99.90
20141;DHT22;10231;47.702;9.826;2024-03-02T09:02:44;7.20;99.90
20141;DHT22;10231;47.702;9.826;2024-03-02T09:05:10;7.20;99.90
20141;DHT22;10231;47.702;9.826;2024-03-02T09:07:35;7.30;99.90
20141;DHT22;10231;47.702;9.826;2024-03-02T09:10:01;7.40;99.90
20141;DHT22;10231;47.702;9.826;2024-03-02T09:12:26;7.40;99.90
20141;DHT22;10231;47.702;9.826;2024-03-02T09:14:52;7.50;99.90
20141;DHT22;10231;47.702;9.826;2024-03-02T09:17:17;7.50;99.90
20141;DHT22;10231;47.702;9.826;2024-03-02T09:19:43;7.50;99.90
20141;DHT22;10231;47.702;9.826;2024-03-02T09:22:08;7.60;99.90
20141;DHT22;10231;47.702;9.826;2024-03-02T09:24:35;7.60;99.90
20141;DHT22;10231;47.702;9.826;2024-03-02T09:27:00;7.60;99.90
20141;DHT22;10231;47.702;9.826;2024-03-02T09:29:26;7.60;99.90
20141;DHT22;10231;47.702;9.826;2024-03-02T09:31:51;7.70;99.90
20141;DHT22;10231;47.702;9.826;2024-03-02T09:34:17;7.70;99.90
20141;DHT22;10231;47.702;9.826;2024-03-02T09:36:43;7.70;99.90
20141;DHT22;10231;47.702;9.826;2024-03-02T09:39:09;7.70;99.90
20141;DHT22;10231;47.702;9.826;2024-03-02T09:41:36;7.70;99.90
20141;DHT22;10231;47.702;9.826;2024-03-02T09:44:03;7.80;99.90
20141;DHT22;10231;47.702;9.826;2024-03-02T09:46:28;7.80;99.90
20141;DHT22;10231;47.702;9.826;2024-03-02T09:48:54;7.80;99.90
20141;DHT22;10231;47.702;9.826;2024-03-02T09:51:20;7.80;99.90
20141;DHT22;10231;47.702;9.826;2024-03-02T09:53:45;7.80;99.90
20141;DHT22;10231;47.702;9.826;2024-03-02T09:56:12;7.90;99.90
20141;DHT22;10231;47.702;9.826;2024-03-02T09:58:39;7.90;99.90
20141;DHT22;10231;47.702;9.826;2024-03-02T10:01:07;8.00;99.90
20141;DHT22;10231;47.702;9.826;2024-03-02T10:03:34;8.10;99.90
20141;DHT22;10231;47.702;9.826;2024-03-02T10:06:27;8.10;99.90
20141;DHT22;10231;47.702;9.826;2024-03-02T10:08:54;8.20;99.90
20141;DHT22;10231;47.702;9.826;2024-03-02T10:11:31;8.50;99.90
20141;DHT22;10231;47.702;9.826;2024-03-02T10:14:08;8.30;99.90
20141;DHT22;10231;47.702;9.826;2024-03-02T10:16:35;8.40;99.90
20141;DHT22;10231;47.702;9.826;2024-03-02T10:19:30;8.40;99.90
20141;DHT22;10231;47.702;9.826;2024-03-02T10:22:01;8.60;99.90
20141;DHT22;10231;47.702;9.826;2024-03-02T10:24:28;8.70;99.90
20141;DHT22;10231;47.702;9.826;2024-03-02T10:26:59;8.80;99.90
20141;DHT22;10231;47.702;9.826;2024-03-02T10:29:25;8.90;99.90
20141;DHT22;10231;47.702;9.826;2024-03-02T10:31:54;8.90;99.90
20141;DHT22;10231;47.702;9.826;2024-03-02T10:34:19;9.00;99.90
20141;DHT22;10231;47.702;9.826;2024-03-02T10:36:47;9.10;99.90
20141;DHT22;10231;47.702;9.826;2024-03-02T10:39:14;9.20;99.90
20141;DHT22;10231;47.702;9.826;2024-03-02T10:41:40;9.30;99.90
20141;DHT22;10231;47.702;9.826;2024-03-02T10:44:07;9.40;99.90
20141;DHT22;10231;47.702;9.826;2024-03-02T10:46:35;9.40;99.90
20141;DHT22;10231;47.702;9.826;2024-03-02T10:49:02;9.40;99.90
20141;DHT22;10231;47.702;9.826;2024-03-02T10:51:31;9.40;99.90
20141;DHT22;10231;47.702;9.826;2024-03-02T10:53:58;9.50;99.90
20141;DHT22;10231;47.702;9.826;2024-03-02T10:56:31;9.50;99.90
20141;DHT22;10231;47.702;9.826;2024-03-02T11:01:50;9.50;99.90
20141;DHT22;10231;47.702;9.826;2024-03-02T11:04:18;9.60;99.90
20141;DHT22;10231;47.702;9.826;2024-03-02T11:06:50;9.60;99.90
20141;DHT22;10231;47.702;9.826;2024-03-02T11:09:20;9.60;99.90
20141;DHT22;10231;47.702;9.826;2024-03-02T11:11:52;9.70;99.90
20141;DHT22;10231;47.702;9.826;2024-03-02T11:14:24;9.80;99.90
20141;DHT22;10231;47.702;9.826;2024-03-02T11:16:50;9.80;99.90
20141;DHT22;10231;47.702;9.826;2024-03-02T11:19:17;9.90;99.90
20141;DHT22;10231;47.702;9.826;2024-03-02T11:21:43;9.90;99.90
20141;DHT22;10231;47.702;9.826;2024-03-02T11:26:49;10.20;99.90
20141;DHT22;10231;47.702;9.826;2024-03-02T11:32:01;10.20;99.90
20141;DHT22;10231;47.702;9.826;2024-03-02T11:34:31;10.30;99.90
20141;DHT22;10231;47.702;9.826;2024-03-02T11:37:06;10.40;99.90
20141;DHT22;10231;47.702;9.826;2024-03-02T11:39:32;10.60;99.90
20141;DHT22;10231;47.702;9.826;2024-03-02T11:41:58;10.60;99.90
20141;DHT22;10231;47.702;9.826;2024-03-02T11:44:28;10.70;99.90
20141;DHT22;10231;47.702;9.826;2024-03-02T11:47:00;10.70;99.90
20141;DHT22;10231;47.702;9.826;2024-03-02T11:49:42;10.70;99.90
20141;DHT22;10231;47.702;9.826;2024-03-02T11:52:10;10.80;99.90
20141;DHT22;10231;47.702;9.826;2024-03-02T11:54:38;10.80;99.90
20141;DHT22;10231;47.702;9.826;2024-03-02T11:57:08;10.80;99.90
20141;DHT22;10231;47.702;9.826;2024-03-02T11:59:34;10.80;99.90
20141;DHT22;10231;47.702;9.826;2024-03-02T12:02:00;10.80;99.90
20141;DHT22;10231;47.702;9.826;2024-03-02T12:04:26;10.80;99.90
20141;DHT22;10231;47.702;9.826;2024-03-02T12:06:56;10.80;99.90
20141;DHT22;10231;47.702;9.826;2024-03-02T12:09:25;10.80;99.90
20141;DHT22;10231;47.702;9.826;2024-03-02T12:12:08;10.80;99.90
20141;DHT22;10231;47.702;9.826;2024-03-02T12:14:37;10.90;99.90
20141;DHT22;10231;47.702;9.826;2024-03-02T12:17:05;10.90;99.90
20141;DHT22;10231;47.702;9.826;2024-03-02T12:19:31;11.00;99.90
20141;DHT22;10231;47.702;9.826;2024-03-02T12:21:57;11.10;99.90
20141;DHT22;10231;47.702;9.826;2024-03-02T12:24:23;11.10;99.90
20141;DHT22;10231;47.702;9.826;2024-03-02T12:26:50;11.20;99.90
20141;DHT22;10231;47.702;9.826;2024-03-02T12:29:16;11.20;99.90
20141;DHT22;10231;47.702;9.826;2024-03-02T12:31:43;11.20;99.90
20141;DHT22;10231;47.702;9.826;2024-03-02T12:34:13;11.20;99.90
20141;DHT22;10231;47.702;9.826;2024-03-02T12:36:39;11.30;99.90
20141;DHT22;10231;47.702;9.826;2024-03-02T12:39:10;11.30;99.90
20141;DHT22;10231;47.702;9.826;2024-03-02T12:41:36;11.30;99.90
20141;DHT22;10231;47.702;9.826;2024-03-02T12:44:03;11.30;99.90
20141;DHT22;10231;47.702;9.826;2024-03-02T12:46:30;11.40;99.90
20141;DHT22;10231;47.702;9.826;2024-03-02T12:48:55;11.40;99.90
20141;DHT22;10231;47.702;9.826;2024-03-02T12:51:21;11.50;99.90
20141;DHT22;10231;47.702;9.826;2024-03-02T12:53:53;11.50;99.90
20141;DHT22;10231;47.702;9.826;2024-03-02T12:56:20;11.60;99.90
20141;DHT22;10231;47.702;9.826;2024-03-02T12:58:45;11.70;99.90
20141;DHT22;10231;47.702;9.826;2024-03-02T13:01:11;11.80;99.90
20141;DHT22;10231;47.702;9.826;2024-03-02T13:03:39;11.80;99.90
20141;DHT22;10231;47.702;9.826;2024-03-02T13:06:08;11.90;99.90
20141;DHT22;10231;47.702;9.826;2024-03-02T13:08:34;12.00;99.90
20141;DHT22;10231;47.702;9.826;2024-03-02T13:11:00;12.00;99.90
20141;DHT22;10231;47.702;9.826;2024-03-02T13:13:26;12.10;99.90
20141;DHT22;10231;47.702;9.826;2024-03-02T13:15:55;12.10;99.90
20141;DHT22;10231;47.702;9.826;2024-03-02T13:18:22;12.20;99.90
20141;DHT22;10231;47.702;9.826;2024-03-02T13:20:47;12.30;99.90
20141;DHT22;10231;47.702;9.826;2024-03-02T13:23:13;12.40;99.90
20141;DHT22;10231;47.702;9.826;2024-03-02T13:25:39;12.60;99.90
20141;DHT22;10231;47.702;9.826;2024-03-02T13:28:05;12.70;99.90
20141;DHT22;10231;47.702;9.826;2024-03-02T13:30:31;12.80;99.90
20141;DHT22;10231;47.702;9.826;2024-03-02T13:32:57;12.80;99.90
20141;DHT22;10231;47.702;9.826;2024-03-02T13:35:23;12.70;99.90
20141;DHT22;10231;47.702;9.826;2024-03-02T13:37:49;12.50;99.90
20141;DHT22;10231;47.702;9.826;2024-03-02T13:40:15;12.40;99.90
20141;DHT22;10231;47.702;9.826;2024-03-02T13:42:45;12.30;99.90
20141;DHT22;10231;47.702;9.826;2024-03-02T13:45:12;12.20;99.90
20141;DHT22;10231;47.702;9.826;2024-03-02T13:47:37;12.10;99.90
20141;DHT22;10231;47.702;9.826;2024-03-02T13:50:03;12.00;99.90
20141;DHT22;10231;47.702;9.826;2024-03-02T13:52:30;11.90;99.90
20141;DHT22;10231;47.702;9.826;2024-03-02T13:54:56;11.80;99.90
20141;DHT22;10231;47.702;9.826;2024-03-02T13:57:21;11.80;99.90
20141;DHT22;10231;47.702;9.826;2024-03-02T13:59:47;11.80;99.90
20141;DHT22;10231;47.702;9.826;2024-03-02T14:02:13;11.70;99.90
20141;DHT22;10231;47.702;9.826;2024-03-02T14:04:39;11.70;99.90
20141;DHT22;10231;47.702;9.826;2024-03-02T14:07:05;11.70;99.90
20141;DHT22;10231;47.702;9.826;2024-03-02T14:09:33;11.60;99.90
20141;DHT22;10231;47.702;9.826;2024-03-02T14:11:59;11.60;99.90
20141;DHT22;10231;47.702;9.826;2024-03-02T14:14:28;11.60;99.90
20141;DHT22;10231;47.702;9.826;2024-03-02T14:16:57;11.60;99.90
20141;DHT22;10231;47.702;9.826;2024-03-02T14:19:29;11.70;99.90
20141;DHT22;10231;47.702;9.826;2024-03-02T14:21:55;11.60;99.90
20141;DHT22;10231;47.702;9.826;2024-03-02T14:24:21;11.70;99.90
20141;DHT22;10231;47.702;9.826;2024-03-02T14:26:54;11.70;99.90
20141;DHT22;10231;47.702;9.826;2024-03-02T14:29:19;11.80;99.90
20141;DHT22;10231;47.702;9.826;2024-03-02T14:31:45;11.90;99.90
20141;DHT22;10231;47.702;9.826;2024-03-02T14:34:14;12.10;99.90
20141;DHT22;10231;47.702;9.826;2024-03-02T14:36:40;12.20;99.90
20141;DHT22;10231;47.702;9.826;2024-03-02T14:39:06;12.30;99.90
20141;DHT22;10231;47.702;9.826;2024-03-02T14:41:35;12.50;99.90
20141;DHT22;10231;47.702;9.826;2024-03-02T14:44:01;12.50;99.90
20141;DHT22;10231;47.702;9.826;2024-03-02T14:46:27;12.60;99.90
20141;DHT22;10231;47.702;9.826;2024-03-02T14:48:52;12.70;99.90
20141;DHT22;10231;47.702;9.826;2024-03-02T14:51:18;12.80;99.90
20141;DHT22;10231;47.702;9.826;2024-03-02T14:53:43;12.80;99.90
20141;DHT22;10231;47.702;9.826;2024-03-02T14:56:09;13.00;99.90
20141;DHT22;10231;47.702;9.826;2024-03-02T14:58:35;13.10;99.90
20141;DHT22;10231;47.702;9.826;2024-03-02T15:01:04;13.30;99.90
20141;DHT22;10231;47.702;9.826;2024-03-02T15:03:31;13.50;99.90
20141;DHT22;10231;47.702;9.826;2024-03-02T15:05:56;13.50;99.90
20141;DHT22;10231;47.702;9.826;2024-03-02T15:08:22;13.60;99.90
20141;DHT22;10231;47.702;9.826;2024-03-02T15:10:48;13.90;99.90
20141;DHT22;10231;47.702;9.826;2024-03-02T15:13:14;14.40;99.90
20141;DHT22;10231;47.702;9.826;2024-03-02T15:15:39;14.80;99.90
20141;DHT22;10231;47.702;9.826;2024-03-02T15:18:05;15.20;99.90
20141;DHT22;10231;47.702;9.826;2024-03-02T15:20:31;15.30;99.90
20141;DHT22;10231;47.702;9.826;2024-03-02T15:22:56;15.30;99.90
20141;DHT22;10231;47.702;9.826;2024-03-02T15:25:22;15.20;99.90
20141;DHT22;10231;47.702;9.826;2024-03-02T15:27:47;15.00;99.90
20141;DHT22;10231;47.702;9.826;2024-03-02T15:30:13;14.80;99.90
20141;DHT22;10231;47.702;9.826;2024-03-02T15:32:39;14.50;99.90
20141;DHT22;10231;47.702;9.826;2024-03-02T15:35:05;14.30;99.90
20141;DHT22;10231;47.702;9.826;2024-03-02T15:37:31;14.20;99.90
20141;DHT22;10231;47.702;9.826;2024-03-02T15:39:57;14.10;99.90
20141;DHT22;10231;47.702;9.826;2024-03-02T15:42:22;13.90;99.90
20141;DHT22;10231;47.702;9.826;2024-03-02T15:44:49;13.90;99.90
20141;DHT22;10231;47.702;9.826;2024-03-02T15:47:14;13.70;99.90
20141;DHT22;10231;47.702;9.826;2024-03-02T15:49:40;13.40;99.90